Weather at Clapp Farm Heliport

Public forecast

Using degrees Celsius for public forecast. Weather courtesy of forecast.io.

Closest aviation weather report (METAR) to Clapp Farm Heliport

Closest report is CFB Trenton, 23.1 nm (42.8 km) WNW.

2024/07/21 12:00 (retrieved 51 minutes ago)

CYTR 211200Z 01003KT 340V080 15SM SCT065 BKN095 21/18 A3005 RMK SC4AC2 DENSITY ALT 1183FT SLP177

Closest aviation forecast (TAF) to Clapp Farm Heliport

Closest forecast is CFB Trenton, 23.1 nm (42.8 km) WNW.

2024/07/21 12:42 (retrieved 9 minutes ago)

TAF CYTR 211140Z 2112/2212 VRB03KT P6SM BKN060 FM211400 32005KT P6SM SCT040 BECMG 2116/2118 22008KT FM211800 22008KT P6SM BKN040 FM220100 VRB03KT P6SM FEW040 PROB30 2206/2212 2SM BR RMK NXT FCST BY 211800Z